sensor_id;sensor_type;location;lat;lon;timestamp;P1;durP1;ratioP1;P2;durP2;ratioP2
15536;SDS011;7870;52.448;13.270;2023-08-30T00:00:45;3.58;;;2.85;;
15536;SDS011;7870;52.448;13.270;2023-08-30T00:03:11;4.93;;;2.78;;
15536;SDS011;7870;52.448;13.270;2023-08-30T00:05:39;6.53;;;2.88;;
15536;SDS011;7870;52.448;13.270;2023-08-30T00:08:06;4.85;;;2.83;;
15536;SDS011;7870;52.448;13.270;2023-08-30T00:10:33;4.25;;;3.30;;
15536;SDS011;7870;52.448;13.270;2023-08-30T00:13:00;5.03;;;3.10;;
15536;SDS011;7870;52.448;13.270;2023-08-30T00:15:27;4.63;;;3.00;;
15536;SDS011;7870;52.448;13.270;2023-08-30T00:17:53;4.78;;;2.85;;
15536;SDS011;7870;52.448;13.270;2023-08-30T00:20:20;6.38;;;3.20;;
15536;SDS011;7870;52.448;13.270;2023-08-30T00:22:47;6.20;;;3.20;;
15536;SDS011;7870;52.448;13.270;2023-08-30T00:25:15;4.00;;;2.92;;
15536;SDS011;7870;52.448;13.270;2023-08-30T00:27:42;7.00;;;3.50;;
15536;SDS011;7870;52.448;13.270;2023-08-30T00:30:10;6.45;;;4.28;;
15536;SDS011;7870;52.448;13.270;2023-08-30T00:32:38;5.43;;;3.88;;
15536;SDS011;7870;52.448;13.270;2023-08-30T00:35:04;6.50;;;4.43;;
15536;SDS011;7870;52.448;13.270;2023-08-30T00:37:31;5.20;;;3.25;;
15536;SDS011;7870;52.448;13.270;2023-08-30T00:39:58;5.82;;;3.30;;
15536;SDS011;7870;52.448;13.270;2023-08-30T00:42:26;5.88;;;3.40;;
15536;SDS011;7870;52.448;13.270;2023-08-30T00:44:53;9.07;;;4.05;;
15536;SDS011;7870;52.448;13.270;2023-08-30T00:47:20;9.20;;;3.42;;
15536;SDS011;7870;52.448;13.270;2023-08-30T00:49:47;4.57;;;3.05;;
15536;SDS011;7870;52.448;13.270;2023-08-30T00:52:14;6.28;;;3.70;;
15536;SDS011;7870;52.448;13.270;2023-08-30T00:54:41;8.00;;;3.55;;
15536;SDS011;7870;52.448;13.270;2023-08-30T00:57:07;4.75;;;3.70;;
15536;SDS011;7870;52.448;13.270;2023-08-30T00:59:34;6.00;;;3.60;;
15536;SDS011;7870;52.448;13.270;2023-08-30T01:02:01;6.13;;;3.67;;
15536;SDS011;7870;52.448;13.270;2023-08-30T01:04:28;5.45;;;3.72;;
15536;SDS011;7870;52.448;13.270;2023-08-30T01:06:54;6.82;;;4.10;;
15536;SDS011;7870;52.448;13.270;2023-08-30T01:09:21;5.53;;;4.15;;
15536;SDS011;7870;52.448;13.270;2023-08-30T01:11:57;8.27;;;4.15;;
15536;SDS011;7870;52.448;13.270;2023-08-30T01:14:56;6.68;;;3.47;;
15536;SDS011;7870;52.448;13.270;2023-08-30T01:17:25;8.57;;;3.90;;
15536;SDS011;7870;52.448;13.270;2023-08-30T01:22:40;5.05;;;4.00;;
15536;SDS011;7870;52.448;13.270;2023-08-30T01:25:17;7.60;;;4.00;;
15536;SDS011;7870;52.448;13.270;2023-08-30T01:27:51;7.38;;;4.28;;
15536;SDS011;7870;52.448;13.270;2023-08-30T01:30:18;6.85;;;4.15;;
15536;SDS011;7870;52.448;13.270;2023-08-30T01:32:46;9.85;;;4.25;;
15536;SDS011;7870;52.448;13.270;2023-08-30T01:35:13;7.43;;;4.20;;
15536;SDS011;7870;52.448;13.270;2023-08-30T01:37:45;9.98;;;4.95;;
15536;SDS011;7870;52.448;13.270;2023-08-30T01:40:13;9.98;;;5.55;;
15536;SDS011;7870;52.448;13.270;2023-08-30T01:42:39;8.27;;;5.40;;
15536;SDS011;7870;52.448;13.270;2023-08-30T01:45:08;6.57;;;5.05;;
15536;SDS011;7870;52.448;13.270;2023-08-30T01:47:37;8.65;;;6.40;;
15536;SDS011;7870;52.448;13.270;2023-08-30T01:50:04;7.35;;;5.93;;
15536;SDS011;7870;52.448;13.270;2023-08-30T01:52:31;7.45;;;5.47;;
15536;SDS011;7870;52.448;13.270;2023-08-30T01:54:58;6.65;;;5.18;;
15536;SDS011;7870;52.448;13.270;2023-08-30T01:57:26;8.00;;;5.90;;
15536;SDS011;7870;52.448;13.270;2023-08-30T01:59:52;7.63;;;5.50;;
15536;SDS011;7870;52.448;13.270;2023-08-30T02:02:19;6.40;;;5.10;;
15536;SDS011;7870;52.448;13.270;2023-08-30T02:04:46;7.80;;;5.00;;
15536;SDS011;7870;52.448;13.270;2023-08-30T02:07:13;9.98;;;5.97;;
15536;SDS011;7870;52.448;13.270;2023-08-30T02:12:16;7.47;;;4.90;;
15536;SDS011;7870;52.448;13.270;2023-08-30T02:14:44;10.40;;;5.55;;
15536;SDS011;7870;52.448;13.270;2023-08-30T02:17:14;10.52;;;5.43;;
15536;SDS011;7870;52.448;13.270;2023-08-30T02:19:42;6.90;;;5.38;;
15536;SDS011;7870;52.448;13.270;2023-08-30T02:22:09;8.32;;;4.97;;
15536;SDS011;7870;52.448;13.270;2023-08-30T02:24:35;8.30;;;6.72;;
15536;SDS011;7870;52.448;13.270;2023-08-30T02:27:02;6.45;;;5.20;;
15536;SDS011;7870;52.448;13.270;2023-08-30T02:29:29;6.55;;;5.68;;
15536;SDS011;7870;52.448;13.270;2023-08-30T02:31:55;9.82;;;6.00;;
15536;SDS011;7870;52.448;13.270;2023-08-30T02:34:22;13.02;;;6.78;;
15536;SDS011;7870;52.448;13.270;2023-08-30T02:36:48;7.30;;;5.30;;
15536;SDS011;7870;52.448;13.270;2023-08-30T02:39:16;7.85;;;5.90;;
15536;SDS011;7870;52.448;13.270;2023-08-30T02:41:42;7.43;;;5.88;;
15536;SDS011;7870;52.448;13.270;2023-08-30T02:44:10;6.07;;;5.15;;
15536;SDS011;7870;52.448;13.270;2023-08-30T02:46:37;7.63;;;5.72;;
15536;SDS011;7870;52.448;13.270;2023-08-30T02:49:04;11.43;;;6.20;;
15536;SDS011;7870;52.448;13.270;2023-08-30T02:51:31;7.03;;;5.80;;
15536;SDS011;7870;52.448;13.270;2023-08-30T02:53:58;7.68;;;5.90;;
15536;SDS011;7870;52.448;13.270;2023-08-30T02:56:24;7.07;;;6.07;;
15536;SDS011;7870;52.448;13.270;2023-08-30T02:58:51;9.10;;;7.55;;
15536;SDS011;7870;52.448;13.270;2023-08-30T03:01:18;8.38;;;6.60;;
15536;SDS011;7870;52.448;13.270;2023-08-30T03:03:47;7.65;;;6.45;;
15536;SDS011;7870;52.448;13.270;2023-08-30T03:06:16;12.20;;;7.63;;
15536;SDS011;7870;52.448;13.270;2023-08-30T03:08:42;12.00;;;7.45;;
15536;SDS011;7870;52.448;13.270;2023-08-30T03:11:10;10.30;;;8.15;;
15536;SDS011;7870;52.448;13.270;2023-08-30T03:13:42;8.77;;;7.00;;
15536;SDS011;7870;52.448;13.270;2023-08-30T03:16:10;9.32;;;6.47;;
15536;SDS011;7870;52.448;13.270;2023-08-30T03:18:40;9.55;;;6.35;;
15536;SDS011;7870;52.448;13.270;2023-08-30T03:21:07;8.95;;;6.45;;
15536;SDS011;7870;52.448;13.270;2023-08-30T03:23:34;7.68;;;6.40;;
15536;SDS011;7870;52.448;13.270;2023-08-30T03:26:12;9.32;;;6.35;;
15536;SDS011;7870;52.448;13.270;2023-08-30T03:28:39;7.38;;;5.80;;
15536;SDS011;7870;52.448;13.270;2023-08-30T03:31:13;7.97;;;6.65;;
15536;SDS011;7870;52.448;13.270;2023-08-30T03:33:41;7.05;;;6.07;;
15536;SDS011;7870;52.448;13.270;2023-08-30T03:36:11;6.78;;;5.82;;
15536;SDS011;7870;52.448;13.270;2023-08-30T03:38:38;11.73;;;6.80;;
15536;SDS011;7870;52.448;13.270;2023-08-30T03:41:05;7.00;;;6.07;;
15536;SDS011;7870;52.448;13.270;2023-08-30T03:43:32;8.07;;;5.82;;
15536;SDS011;7870;52.448;13.270;2023-08-30T03:45:59;7.90;;;7.10;;
15536;SDS011;7870;52.448;13.270;2023-08-30T03:48:26;7.22;;;5.80;;
15536;SDS011;7870;52.448;13.270;2023-08-30T03:50:54;11.88;;;6.03;;
15536;SDS011;7870;52.448;13.270;2023-08-30T03:53:21;7.68;;;6.07;;
15536;SDS011;7870;52.448;13.270;2023-08-30T03:55:48;7.60;;;6.70;;
15536;SDS011;7870;52.448;13.270;2023-08-30T03:58:16;10.02;;;5.88;;
15536;SDS011;7870;52.448;13.270;2023-08-30T04:00:43;7.57;;;6.22;;
15536;SDS011;7870;52.448;13.270;2023-08-30T04:03:10;7.47;;;5.78;;
15536;SDS011;7870;52.448;13.270;2023-08-30T04:05:37;8.93;;;6.28;;
15536;SDS011;7870;52.448;13.270;2023-08-30T04:08:04;8.98;;;6.32;;
15536;SDS011;7870;52.448;13.270;2023-08-30T04:10:38;10.52;;;5.85;;
15536;SDS011;7870;52.448;13.270;2023-08-30T04:13:05;7.03;;;6.03;;
15536;SDS011;7870;52.448;13.270;2023-08-30T04:15:37;7.10;;;5.53;;
15536;SDS011;7870;52.448;13.270;2023-08-30T04:18:05;9.15;;;5.53;;
15536;SDS011;7870;52.448;13.270;2023-08-30T04:20:33;7.03;;;6.18;;
15536;SDS011;7870;52.448;13.270;2023-08-30T04:23:00;7.90;;;5.68;;
15536;SDS011;7870;52.448;13.270;2023-08-30T04:25:30;9.35;;;6.43;;
15536;SDS011;7870;52.448;13.270;2023-08-30T04:27:57;8.68;;;6.43;;
15536;SDS011;7870;52.448;13.270;2023-08-30T04:30:24;9.23;;;7.20;;
15536;SDS011;7870;52.448;13.270;2023-08-30T04:32:51;8.20;;;6.85;;
15536;SDS011;7870;52.448;13.270;2023-08-30T04:35:18;8.98;;;7.47;;
15536;SDS011;7870;52.448;13.270;2023-08-30T04:37:44;7.97;;;6.10;;
15536;SDS011;7870;52.448;13.270;2023-08-30T04:40:12;7.20;;;5.93;;
15536;SDS011;7870;52.448;13.270;2023-08-30T04:42:39;9.13;;;6.15;;
15536;SDS011;7870;52.448;13.270;2023-08-30T04:45:08;8.25;;;5.50;;
15536;SDS011;7870;52.448;13.270;2023-08-30T04:47:36;6.65;;;5.68;;
15536;SDS011;7870;52.448;13.270;2023-08-30T04:50:03;9.55;;;6.68;;
15536;SDS011;7870;52.448;13.270;2023-08-30T04:52:32;7.53;;;5.80;;
15536;SDS011;7870;52.448;13.270;2023-08-30T04:54:59;10.32;;;6.25;;
15536;SDS011;7870;52.448;13.270;2023-08-30T04:57:26;8.32;;;5.85;;
15536;SDS011;7870;52.448;13.270;2023-08-30T04:59:54;7.30;;;5.63;;
15536;SDS011;7870;52.448;13.270;2023-08-30T05:02:21;8.32;;;6.28;;
15536;SDS011;7870;52.448;13.270;2023-08-30T05:04:57;11.25;;;7.00;;
15536;SDS011;7870;52.448;13.270;2023-08-30T05:07:24;9.65;;;6.43;;
15536;SDS011;7870;52.448;13.270;2023-08-30T05:09:51;8.93;;;6.38;;
15536;SDS011;7870;52.448;13.270;2023-08-30T05:12:18;8.55;;;7.05;;
15536;SDS011;7870;52.448;13.270;2023-08-30T05:14:45;11.65;;;7.85;;
15536;SDS011;7870;52.448;13.270;2023-08-30T05:17:11;8.48;;;7.32;;
15536;SDS011;7870;52.448;13.270;2023-08-30T05:19:38;10.93;;;7.65;;
15536;SDS011;7870;52.448;13.270;2023-08-30T05:22:04;9.73;;;7.00;;
15536;SDS011;7870;52.448;13.270;2023-08-30T05:24:31;8.57;;;6.85;;
15536;SDS011;7870;52.448;13.270;2023-08-30T05:26:58;8.73;;;7.47;;
15536;SDS011;7870;52.448;13.270;2023-08-30T05:29:25;8.05;;;7.03;;
15536;SDS011;7870;52.448;13.270;2023-08-30T05:31:52;9.50;;;7.07;;
15536;SDS011;7870;52.448;13.270;2023-08-30T05:34:25;9.20;;;7.15;;
15536;SDS011;7870;52.448;13.270;2023-08-30T05:37:13;9.90;;;7.50;;
15536;SDS011;7870;52.448;13.270;2023-08-30T05:40:13;9.18;;;7.03;;
15536;SDS011;7870;52.448;13.270;2023-08-30T05:42:43;10.75;;;7.45;;
15536;SDS011;7870;52.448;13.270;2023-08-30T05:45:09;9.93;;;7.60;;
15536;SDS011;7870;52.448;13.270;2023-08-30T05:47:36;11.07;;;7.68;;
15536;SDS011;7870;52.448;13.270;2023-08-30T05:50:03;13.70;;;7.45;;
15536;SDS011;7870;52.448;13.270;2023-08-30T05:52:29;13.07;;;7.03;;
15536;SDS011;7870;52.448;13.270;2023-08-30T05:54:56;11.25;;;7.20;;
15536;SDS011;7870;52.448;13.270;2023-08-30T05:57:23;8.88;;;7.18;;
15536;SDS011;7870;52.448;13.270;2023-08-30T05:59:51;9.88;;;5.85;;
15536;SDS011;7870;52.448;13.270;2023-08-30T06:02:18;14.88;;;7.00;;
15536;SDS011;7870;52.448;13.270;2023-08-30T06:04:44;11.73;;;6.93;;
15536;SDS011;7870;52.448;13.270;2023-08-30T06:07:11;10.68;;;6.95;;
15536;SDS011;7870;52.448;13.270;2023-08-30T06:09:37;12.80;;;6.65;;
15536;SDS011;7870;52.448;13.270;2023-08-30T06:12:04;10.85;;;6.35;;
15536;SDS011;7870;52.448;13.270;2023-08-30T06:14:31;8.52;;;5.90;;
15536;SDS011;7870;52.448;13.270;2023-08-30T06:16:57;10.63;;;5.85;;
15536;SDS011;7870;52.448;13.270;2023-08-30T06:19:24;9.15;;;5.80;;
15536;SDS011;7870;52.448;13.270;2023-08-30T06:21:50;7.80;;;5.03;;
15536;SDS011;7870;52.448;13.270;2023-08-30T06:24:17;9.23;;;5.68;;
15536;SDS011;7870;52.448;13.270;2023-08-30T06:26:43;8.55;;;4.93;;
15536;SDS011;7870;52.448;13.270;2023-08-30T06:29:10;10.23;;;5.75;;
15536;SDS011;7870;52.448;13.270;2023-08-30T06:31:36;9.80;;;5.63;;
15536;SDS011;7870;52.448;13.270;2023-08-30T06:34:03;8.57;;;6.25;;
15536;SDS011;7870;52.448;13.270;2023-08-30T06:36:29;8.23;;;5.20;;
15536;SDS011;7870;52.448;13.270;2023-08-30T06:38:56;10.30;;;5.35;;
15536;SDS011;7870;52.448;13.270;2023-08-30T06:41:22;7.13;;;4.85;;
15536;SDS011;7870;52.448;13.270;2023-08-30T06:43:49;6.40;;;5.25;;
15536;SDS011;7870;52.448;13.270;2023-08-30T06:46:16;11.90;;;5.32;;
15536;SDS011;7870;52.448;13.270;2023-08-30T06:48:42;9.43;;;6.07;;
15536;SDS011;7870;52.448;13.270;2023-08-30T06:51:09;6.90;;;4.38;;
15536;SDS011;7870;52.448;13.270;2023-08-30T06:53:36;8.05;;;4.80;;
15536;SDS011;7870;52.448;13.270;2023-08-30T06:56:03;8.27;;;5.55;;
15536;SDS011;7870;52.448;13.270;2023-08-30T06:58:30;12.40;;;6.03;;
15536;SDS011;7870;52.448;13.270;2023-08-30T07:00:56;9.23;;;5.25;;
15536;SDS011;7870;52.448;13.270;2023-08-30T07:03:23;9.55;;;5.70;;
15536;SDS011;7870;52.448;13.270;2023-08-30T07:05:53;6.50;;;4.68;;
15536;SDS011;7870;52.448;13.270;2023-08-30T07:08:19;6.68;;;5.30;;
15536;SDS011;7870;52.448;13.270;2023-08-30T07:10:46;8.38;;;5.20;;
15536;SDS011;7870;52.448;13.270;2023-08-30T07:13:12;7.43;;;5.53;;
15536;SDS011;7870;52.448;13.270;2023-08-30T07:15:39;10.32;;;6.22;;
15536;SDS011;7870;52.448;13.270;2023-08-30T07:18:07;9.40;;;5.95;;
15536;SDS011;7870;52.448;13.270;2023-08-30T07:20:34;8.75;;;5.45;;
15536;SDS011;7870;52.448;13.270;2023-08-30T07:23:03;7.85;;;6.20;;
15536;SDS011;7870;52.448;13.270;2023-08-30T07:25:30;8.82;;;5.47;;
15536;SDS011;7870;52.448;13.270;2023-08-30T07:27:59;5.47;;;4.95;;
15536;SDS011;7870;52.448;13.270;2023-08-30T07:30:26;6.45;;;5.20;;
15536;SDS011;7870;52.448;13.270;2023-08-30T07:32:53;10.13;;;6.07;;
15536;SDS011;7870;52.448;13.270;2023-08-30T07:35:19;10.07;;;5.43;;
15536;SDS011;7870;52.448;13.270;2023-08-30T07:37:46;6.85;;;5.60;;
15536;SDS011;7870;52.448;13.270;2023-08-30T07:40:12;11.80;;;6.07;;
15536;SDS011;7870;52.448;13.270;2023-08-30T07:42:39;7.18;;;5.43;;
15536;SDS011;7870;52.448;13.270;2023-08-30T07:45:06;6.90;;;4.78;;
15536;SDS011;7870;52.448;13.270;2023-08-30T07:47:33;7.57;;;5.00;;
15536;SDS011;7870;52.448;13.270;2023-08-30T07:49:59;8.07;;;5.10;;
15536;SDS011;7870;52.448;13.270;2023-08-30T07:52:26;9.95;;;4.65;;
15536;SDS011;7870;52.448;13.270;2023-08-30T07:55:10;7.13;;;5.07;;
15536;SDS011;7870;52.448;13.270;2023-08-30T07:57:37;6.93;;;4.63;;
15536;SDS011;7870;52.448;13.270;2023-08-30T08:00:03;5.55;;;4.53;;
15536;SDS011;7870;52.448;13.270;2023-08-30T08:02:36;5.28;;;4.35;;
15536;SDS011;7870;52.448;13.270;2023-08-30T08:05:03;6.85;;;4.30;;
15536;SDS011;7870;52.448;13.270;2023-08-30T08:07:30;5.00;;;4.50;;
15536;SDS011;7870;52.448;13.270;2023-08-30T08:09:56;10.30;;;5.10;;
15536;SDS011;7870;52.448;13.270;2023-08-30T08:12:23;5.43;;;4.70;;
15536;SDS011;7870;52.448;13.270;2023-08-30T08:14:51;6.93;;;4.78;;
15536;SDS011;7870;52.448;13.270;2023-08-30T08:17:18;4.72;;;4.00;;
15536;SDS011;7870;52.448;13.270;2023-08-30T08:19:44;8.13;;;4.90;;
15536;SDS011;7870;52.448;13.270;2023-08-30T08:22:11;5.10;;;4.50;;
15536;SDS011;7870;52.448;13.270;2023-08-30T08:24:37;9.13;;;5.25;;
15536;SDS011;7870;52.448;13.270;2023-08-30T08:27:04;6.68;;;5.30;;
15536;SDS011;7870;52.448;13.270;2023-08-30T08:29:32;5.57;;;4.78;;
15536;SDS011;7870;52.448;13.270;2023-08-30T08:31:58;6.53;;;4.50;;
15536;SDS011;7870;52.448;13.270;2023-08-30T08:34:25;5.20;;;3.90;;
15536;SDS011;7870;52.448;13.270;2023-08-30T08:36:51;7.80;;;4.22;;
15536;SDS011;7870;52.448;13.270;2023-08-30T08:39:18;4.30;;;3.30;;
15536;SDS011;7870;52.448;13.270;2023-08-30T08:41:45;5.57;;;3.50;;
15536;SDS011;7870;52.448;13.270;2023-08-30T08:44:12;8.38;;;3.92;;
15536;SDS011;7870;52.448;13.270;2023-08-30T08:46:39;4.93;;;3.63;;
15536;SDS011;7870;52.448;13.270;2023-08-30T08:49:13;4.20;;;3.38;;
15536;SDS011;7870;52.448;13.270;2023-08-30T08:51:41;5.57;;;3.58;;
15536;SDS011;7870;52.448;13.270;2023-08-30T08:54:09;5.20;;;3.67;;
15536;SDS011;7870;52.448;13.270;2023-08-30T08:56:37;4.82;;;3.35;;
15536;SDS011;7870;52.448;13.270;2023-08-30T08:59:04;12.63;;;3.60;;
15536;SDS011;7870;52.448;13.270;2023-08-30T09:01:38;7.57;;;3.88;;
15536;SDS011;7870;52.448;13.270;2023-08-30T09:04:07;5.70;;;3.85;;
15536;SDS011;7870;52.448;13.270;2023-08-30T09:06:35;4.63;;;3.58;;
15536;SDS011;7870;52.448;13.270;2023-08-30T09:09:02;7.40;;;3.70;;
15536;SDS011;7870;52.448;13.270;2023-08-30T09:11:30;4.00;;;3.58;;
15536;SDS011;7870;52.448;13.270;2023-08-30T09:14:15;5.85;;;4.03;;
15536;SDS011;7870;52.448;13.270;2023-08-30T09:16:42;3.60;;;3.25;;
15536;SDS011;7870;52.448;13.270;2023-08-30T09:19:08;7.82;;;3.78;;
15536;SDS011;7870;52.448;13.270;2023-08-30T09:21:37;6.47;;;3.45;;
15536;SDS011;7870;52.448;13.270;2023-08-30T09:24:04;5.13;;;3.38;;
15536;SDS011;7870;52.448;13.270;2023-08-30T09:26:32;4.30;;;3.60;;
15536;SDS011;7870;52.448;13.270;2023-08-30T09:29:02;7.15;;;4.10;;
15536;SDS011;7870;52.448;13.270;2023-08-30T09:31:36;6.70;;;4.13;;
15536;SDS011;7870;52.448;13.270;2023-08-30T09:34:04;7.07;;;4.20;;
15536;SDS011;7870;52.448;13.270;2023-08-30T09:36:34;4.97;;;3.88;;
15536;SDS011;7870;52.448;13.270;2023-08-30T09:39:08;4.78;;;4.00;;
15536;SDS011;7870;52.448;13.270;2023-08-30T09:41:41;5.03;;;3.53;;
15536;SDS011;7870;52.448;13.270;2023-08-30T09:44:09;5.03;;;3.72;;
15536;SDS011;7870;52.448;13.270;2023-08-30T09:46:44;4.30;;;3.40;;
15536;SDS011;7870;52.448;13.270;2023-08-30T09:49:19;4.75;;;3.30;;
15536;SDS011;7870;52.448;13.270;2023-08-30T09:51:50;5.35;;;3.90;;
15536;SDS011;7870;52.448;13.270;2023-08-30T09:54:21;7.55;;;3.33;;
15536;SDS011;7870;52.448;13.270;2023-08-30T09:56:52;4.80;;;2.90;;
15536;SDS011;7870;52.448;13.270;2023-08-30T09:59:22;3.85;;;3.08;;
15536;SDS011;7870;52.448;13.270;2023-08-30T10:01:49;5.47;;;2.97;;
15536;SDS011;7870;52.448;13.270;2023-08-30T10:04:17;4.45;;;2.38;;
15536;SDS011;7870;52.448;13.270;2023-08-30T10:06:45;3.80;;;2.78;;
15536;SDS011;7870;52.448;13.270;2023-08-30T10:09:13;3.92;;;2.45;;
15536;SDS011;7870;52.448;13.270;2023-08-30T10:11:45;3.50;;;2.22;;
15536;SDS011;7870;52.448;13.270;2023-08-30T10:14:12;2.80;;;1.95;;
15536;SDS011;7870;52.448;13.270;2023-08-30T10:16:43;4.38;;;2.20;;
15536;SDS011;7870;52.448;13.270;2023-08-30T10:19:15;3.47;;;2.20;;
15536;SDS011;7870;52.448;13.270;2023-08-30T10:22:05;4.75;;;2.03;;
15536;SDS011;7870;52.448;13.270;2023-08-30T10:24:37;5.28;;;2.50;;
15536;SDS011;7870;52.448;13.270;2023-08-30T10:27:27;4.45;;;2.13;;
15536;SDS011;7870;52.448;13.270;2023-08-30T10:29:54;5.22;;;2.13;;
15536;SDS011;7870;52.448;13.270;2023-08-30T10:32:21;3.22;;;1.90;;
15536;SDS011;7870;52.448;13.270;2023-08-30T10:34:49;4.18;;;2.50;;
15536;SDS011;7870;52.448;13.270;2023-08-30T10:37:16;3.67;;;2.55;;
15536;SDS011;7870;52.448;13.270;2023-08-30T10:39:48;5.55;;;3.15;;
15536;SDS011;7870;52.448;13.270;2023-08-30T10:42:16;5.25;;;2.83;;
15536;SDS011;7870;52.448;13.270;2023-08-30T10:44:52;5.05;;;3.05;;
15536;SDS011;7870;52.448;13.270;2023-08-30T10:47:40;4.43;;;2.70;;
15536;SDS011;7870;52.448;13.270;2023-08-30T10:50:08;2.88;;;1.45;;
15536;SDS011;7870;52.448;13.270;2023-08-30T17:12:53;3.05;;;1.80;;
15536;SDS011;7870;52.448;13.270;2023-08-30T17:15:25;5.68;;;2.25;;
15536;SDS011;7870;52.448;13.270;2023-08-30T17:17:52;4.35;;;1.67;;
15536;SDS011;7870;52.448;13.270;2023-08-30T17:20:19;4.60;;;1.60;;
15536;SDS011;7870;52.448;13.270;2023-08-30T17:22:46;4.15;;;1.70;;
15536;SDS011;7870;52.448;13.270;2023-08-30T17:25:12;2.88;;;1.63;;
15536;SDS011;7870;52.448;13.270;2023-08-30T17:27:39;6.05;;;2.28;;
15536;SDS011;7870;52.448;13.270;2023-08-30T17:30:08;4.35;;;1.60;;
15536;SDS011;7870;52.448;13.270;2023-08-30T17:35:06;5.63;;;1.85;;
15536;SDS011;7870;52.448;13.270;2023-08-30T17:37:33;4.20;;;1.85;;
15536;SDS011;7870;52.448;13.270;2023-08-30T17:40:00;5.35;;;1.98;;
15536;SDS011;7870;52.448;13.270;2023-08-30T17:42:26;2.53;;;1.70;;
15536;SDS011;7870;52.448;13.270;2023-08-30T17:44:53;4.40;;;2.00;;
15536;SDS011;7870;52.448;13.270;2023-08-30T17:47:26;3.35;;;1.73;;
15536;SDS011;7870;52.448;13.270;2023-08-30T17:49:53;2.90;;;1.75;;
15536;SDS011;7870;52.448;13.270;2023-08-30T17:52:20;4.88;;;1.50;;
15536;SDS011;7870;52.448;13.270;2023-08-30T17:54:48;2.50;;;1.60;;
15536;SDS011;7870;52.448;13.270;2023-08-30T17:57:14;4.53;;;2.40;;
15536;SDS011;7870;52.448;13.270;2023-08-30T17:59:42;4.15;;;2.30;;
15536;SDS011;7870;52.448;13.270;2023-08-30T18:02:12;5.78;;;2.63;;
15536;SDS011;7870;52.448;13.270;2023-08-30T18:04:39;5.07;;;2.47;;
15536;SDS011;7870;52.448;13.270;2023-08-30T18:07:05;3.90;;;2.40;;
15536;SDS011;7870;52.448;13.270;2023-08-30T18:09:32;8.85;;;3.47;;
15536;SDS011;7870;52.448;13.270;2023-08-30T18:11:58;6.07;;;3.70;;
15536;SDS011;7870;52.448;13.270;2023-08-30T18:14:27;6.00;;;3.33;;
15536;SDS011;7870;52.448;13.270;2023-08-30T18:16:53;13.38;;;6.65;;
15536;SDS011;7870;52.448;13.270;2023-08-30T18:19:20;15.18;;;7.93;;
15536;SDS011;7870;52.448;13.270;2023-08-30T18:21:47;15.20;;;7.25;;
15536;SDS011;7870;52.448;13.270;2023-08-30T18:24:16;15.00;;;7.30;;
15536;SDS011;7870;52.448;13.270;2023-08-30T18:26:44;27.02;;;11.90;;
15536;SDS011;7870;52.448;13.270;2023-08-30T18:29:12;32.17;;;16.15;;
15536;SDS011;7870;52.448;13.270;2023-08-30T18:31:38;37.28;;;17.88;;
15536;SDS011;7870;52.448;13.270;2023-08-30T18:34:05;26.35;;;12.95;;
15536;SDS011;7870;52.448;13.270;2023-08-30T18:36:32;25.38;;;12.40;;
15536;SDS011;7870;52.448;13.270;2023-08-30T18:38:59;32.03;;;14.48;;
15536;SDS011;7870;52.448;13.270;2023-08-30T18:41:26;25.83;;;11.70;;
15536;SDS011;7870;52.448;13.270;2023-08-30T18:43:53;21.80;;;12.18;;
15536;SDS011;7870;52.448;13.270;2023-08-30T18:46:19;16.40;;;9.63;;
15536;SDS011;7870;52.448;13.270;2023-08-30T18:48:47;19.20;;;9.82;;
15536;SDS011;7870;52.448;13.270;2023-08-30T18:51:15;17.25;;;9.20;;
15536;SDS011;7870;52.448;13.270;2023-08-30T18:53:43;15.70;;;7.15;;
15536;SDS011;7870;52.448;13.270;2023-08-30T18:56:09;12.98;;;7.65;;
15536;SDS011;7870;52.448;13.270;2023-08-30T18:58:36;10.98;;;5.65;;
15536;SDS011;7870;52.448;13.270;2023-08-30T19:01:03;8.27;;;4.60;;
15536;SDS011;7870;52.448;13.270;2023-08-30T19:03:30;8.65;;;5.25;;
15536;SDS011;7870;52.448;13.270;2023-08-30T19:05:57;12.40;;;5.95;;
15536;SDS011;7870;52.448;13.270;2023-08-30T19:08:23;13.05;;;6.68;;
15536;SDS011;7870;52.448;13.270;2023-08-30T19:10:50;19.35;;;8.38;;
15536;SDS011;7870;52.448;13.270;2023-08-30T19:13:16;25.10;;;11.93;;
15536;SDS011;7870;52.448;13.270;2023-08-30T19:15:43;32.65;;;15.35;;
15536;SDS011;7870;52.448;13.270;2023-08-30T19:18:09;31.45;;;16.08;;
15536;SDS011;7870;52.448;13.270;2023-08-30T19:20:36;40.05;;;16.83;;
15536;SDS011;7870;52.448;13.270;2023-08-30T19:23:03;27.33;;;15.00;;
15536;SDS011;7870;52.448;13.270;2023-08-30T19:25:32;33.25;;;15.40;;
15536;SDS011;7870;52.448;13.270;2023-08-30T19:27:59;33.40;;;16.23;;
15536;SDS011;7870;52.448;13.270;2023-08-30T19:30:26;27.67;;;14.80;;
15536;SDS011;7870;52.448;13.270;2023-08-30T19:32:52;28.50;;;14.13;;
15536;SDS011;7870;52.448;13.270;2023-08-30T19:35:19;26.55;;;15.85;;
15536;SDS011;7870;52.448;13.270;2023-08-30T19:37:46;28.52;;;15.63;;
15536;SDS011;7870;52.448;13.270;2023-08-30T19:40:13;22.33;;;12.48;;
15536;SDS011;7870;52.448;13.270;2023-08-30T19:42:40;12.32;;;7.75;;
15536;SDS011;7870;52.448;13.270;2023-08-30T19:45:08;11.73;;;7.40;;
15536;SDS011;7870;52.448;13.270;2023-08-30T19:47:35;14.55;;;8.25;;
15536;SDS011;7870;52.448;13.270;2023-08-30T19:50:01;14.52;;;9.15;;
15536;SDS011;7870;52.448;13.270;2023-08-30T19:52:28;11.27;;;8.23;;
15536;SDS011;7870;52.448;13.270;2023-08-30T19:54:55;11.20;;;7.30;;
15536;SDS011;7870;52.448;13.270;2023-08-30T19:57:22;10.82;;;6.93;;
15536;SDS011;7870;52.448;13.270;2023-08-30T19:59:48;8.52;;;6.00;;
15536;SDS011;7870;52.448;13.270;2023-08-30T20:02:15;7.97;;;5.00;;
15536;SDS011;7870;52.448;13.270;2023-08-30T20:04:41;8.77;;;5.40;;
15536;SDS011;7870;52.448;13.270;2023-08-30T20:07:08;9.68;;;6.32;;
15536;SDS011;7870;52.448;13.270;2023-08-30T20:09:34;6.43;;;4.43;;
15536;SDS011;7870;52.448;13.270;2023-08-30T20:12:01;6.80;;;3.30;;
15536;SDS011;7870;52.448;13.270;2023-08-30T20:14:30;5.85;;;2.90;;
15536;SDS011;7870;52.448;13.270;2023-08-30T20:16:57;5.07;;;2.40;;
15536;SDS011;7870;52.448;13.270;2023-08-30T20:19:24;6.30;;;2.67;;
15536;SDS011;7870;52.448;13.270;2023-08-30T20:21:50;4.80;;;2.38;;
15536;SDS011;7870;52.448;13.270;2023-08-30T20:24:17;4.20;;;2.25;;
15536;SDS011;7870;52.448;13.270;2023-08-30T20:26:45;3.85;;;2.10;;
15536;SDS011;7870;52.448;13.270;2023-08-30T20:29:13;3.65;;;2.20;;
15536;SDS011;7870;52.448;13.270;2023-08-30T20:31:40;3.78;;;2.40;;
15536;SDS011;7870;52.448;13.270;2023-08-30T20:34:06;4.50;;;2.20;;
15536;SDS011;7870;52.448;13.270;2023-08-30T20:36:37;2.92;;;1.90;;
15536;SDS011;7870;52.448;13.270;2023-08-30T20:39:05;5.78;;;2.42;;
15536;SDS011;7870;52.448;13.270;2023-08-30T20:41:32;3.67;;;1.80;;
15536;SDS011;7870;52.448;13.270;2023-08-30T20:43:58;4.72;;;2.20;;
15536;SDS011;7870;52.448;13.270;2023-08-30T20:46:25;3.25;;;2.05;;
15536;SDS011;7870;52.448;13.270;2023-08-30T20:48:52;4.15;;;2.35;;
15536;SDS011;7870;52.448;13.270;2023-08-30T20:51:18;3.70;;;2.20;;
15536;SDS011;7870;52.448;13.270;2023-08-30T20:53:45;4.35;;;2.17;;
15536;SDS011;7870;52.448;13.270;2023-08-30T20:56:14;4.45;;;2.25;;
15536;SDS011;7870;52.448;13.270;2023-08-30T20:58:41;3.17;;;2.05;;
15536;SDS011;7870;52.448;13.270;2023-08-30T21:01:16;3.60;;;2.42;;
15536;SDS011;7870;52.448;13.270;2023-08-30T21:03:42;3.05;;;2.13;;
15536;SDS011;7870;52.448;13.270;2023-08-30T21:06:09;3.67;;;2.20;;
15536;SDS011;7870;52.448;13.270;2023-08-30T21:08:36;3.33;;;2.15;;
15536;SDS011;7870;52.448;13.270;2023-08-30T21:11:06;5.45;;;2.20;;
15536;SDS011;7870;52.448;13.270;2023-08-30T21:13:34;3.08;;;2.00;;
15536;SDS011;7870;52.448;13.270;2023-08-30T21:16:01;4.82;;;2.30;;